Miami, Florida
Traffic Map
Current Weather Conditions
Miami, Florida
Few Clouds
Few Clouds
67°
Feels Like: 67°
Wind Chill: 67° Ceiling: Unl
Heat Index: 67° Visibility: 10mi
Dew Point: 48° Wind: 10mph
Humidity: 51% Direction: 340° (NNW)
Pressure: 30.22in Gusts: 17mph
Raw Report DataKMIA 281653Z 34009G15KT 10SM FEW040 FEW300 19/09 A3022 RMK AO2 SLP234 T01940089
Traffic Incident Summary
Active as of:
Severity:
Category:
InformationThere was an issue retrieving the traffic information for this location. Please try a different location or try again shortly.
Advertisements
Track Severe Weather on mobile